Time;durP1;ratioP1;P1;durP2;ratioP2;P2;SDS_P1;SDS_P2;PMS_P1;PMS_P2;Temp;Humidity;BMP_temperature;BMP_pressure;BME280_temperature;BME280_humidity;BME280_pressure;Samples;Min_cycle;Max_cycle;Signal;HPM_P1;HPM_P2
2021/07/22 00:00:23;;;;;;;0.30;0.30;;;18.10;99.90;;;;;;5030954;28;20189;-87
2021/07/22 00:02:49;;;;;;;0.70;0.50;;;18.10;99.90;;;;;;5026804;28;20188;-87
2021/07/22 00:05:15;;;;;;;0.70;0.50;;;18.00;99.90;;;;;;5015999;28;20190;-87
2021/07/22 00:07:42;;;;;;;0.60;0.60;;;18.00;99.90;;;;;;5026744;28;20674;-87
2021/07/22 00:10:08;;;;;;;0.97;0.50;;;17.90;99.90;;;;;;5034622;28;20256;-88
2021/07/22 00:12:34;;;;;;;1.10;0.50;;;17.80;99.90;;;;;;5014875;28;20175;-87
2021/07/22 00:15:00;;;;;;;1.53;1.47;;;17.70;99.90;;;;;;5026229;28;20189;-87
2021/07/22 00:17:25;;;;;;;0.33;0.33;;;17.80;99.90;;;;;;5022878;28;20201;-87
2021/07/22 00:19:51;;;;;;;1.50;0.43;;;17.80;99.90;;;;;;5028012;28;20256;-87
2021/07/22 00:22:16;;;;;;;0.40;0.40;;;17.70;99.90;;;;;;5041177;28;20656;-87
2021/07/22 00:24:42;;;;;;;0.60;0.30;;;17.80;99.90;;;;;;5048722;28;20183;-87
2021/07/22 00:27:08;;;;;;;0.40;0.30;;;17.90;99.90;;;;;;5036682;28;20708;-87
2021/07/22 00:29:34;;;;;;;0.30;0.30;;;18.00;99.90;;;;;;5049632;28;20747;-87
2021/07/22 00:32:00;;;;;;;0.20;0.20;;;18.10;99.90;;;;;;5018550;28;20194;-87
2021/07/22 00:34:38;;;;;;;0.27;0.27;;;18.10;99.90;;;;;;5031637;28;20256;-86
2021/07/22 00:37:04;;;;;;;1.27;0.37;;;18.20;99.90;;;;;;5033709;28;20174;-87
2021/07/22 00:39:29;;;;;;;0.53;0.53;;;18.20;99.90;;;;;;5043672;28;20203;-87
2021/07/22 00:41:55;;;;;;;0.53;0.43;;;18.20;99.90;;;;;;5025114;28;20186;-87
2021/07/22 00:44:20;;;;;;;0.63;0.63;;;18.00;99.90;;;;;;5047948;28;20175;-87
2021/07/22 00:46:46;;;;;;;0.63;0.23;;;18.00;99.90;;;;;;5030914;28;20275;-86
2021/07/22 00:49:12;;;;;;;2.13;0.73;;;18.10;99.90;;;;;;5018222;28;20822;-87
2021/07/22 00:51:39;;;;;;;1.27;0.60;;;18.20;99.90;;;;;;5022494;28;20182;-87
2021/07/22 00:54:04;;;;;;;0.77;0.30;;;18.10;99.90;;;;;;5044533;28;20235;-87
2021/07/22 00:56:31;;;;;;;0.50;0.50;;;18.20;99.90;;;;;;5024358;28;20693;-86
2021/07/22 00:58:57;;;;;;;0.70;0.70;;;18.00;99.90;;;;;;5037842;28;20198;-87
2021/07/22 01:01:22;;;;;;;1.40;0.40;;;17.90;99.90;;;;;;5024509;28;20183;-87
2021/07/22 01:03:48;;;;;;;0.70;0.63;;;17.70;99.90;;;;;;5056043;28;20175;-87
2021/07/22 01:06:13;;;;;;;0.30;0.30;;;17.60;99.90;;;;;;5024394;28;20185;-86
2021/07/22 01:08:39;;;;;;;0.40;0.30;;;17.60;99.90;;;;;;5045457;28;20213;-88
2021/07/22 01:11:04;;;;;;;0.37;0.37;;;17.60;99.90;;;;;;5019383;28;20265;-87
2021/07/22 01:13:30;;;;;;;0.33;0.33;;;17.60;99.90;;;;;;5029613;28;20600;-87
2021/07/22 01:15:56;;;;;;;0.63;0.47;;;17.60;99.90;;;;;;5018127;28;20661;-87
2021/07/22 01:18:21;;;;;;;0.23;0.23;;;17.70;99.90;;;;;;5022013;28;20190;-86
2021/07/22 01:20:47;;;;;;;0.67;0.53;;;17.70;99.90;;;;;;5027921;28;20204;-87
2021/07/22 01:23:12;;;;;;;0.40;0.40;;;17.80;99.90;;;;;;5048494;28;20235;-87
2021/07/22 01:25:38;;;;;;;0.40;0.40;;;17.80;99.90;;;;;;5048878;28;20182;-87
2021/07/22 01:28:04;;;;;;;0.47;0.47;;;17.80;99.90;;;;;;5042019;28;20259;-87
2021/07/22 01:30:29;;;;;;;0.50;0.50;;;17.80;99.90;;;;;;5037131;28;20296;-87
2021/07/22 01:32:55;;;;;;;0.30;0.30;;;17.80;99.90;;;;;;5030537;28;20182;-86
2021/07/22 01:35:20;;;;;;;0.30;0.30;;;18.00;99.90;;;;;;5015669;28;20191;-87
2021/07/22 01:37:49;;;;;;;0.60;0.53;;;18.00;99.90;;;;;;5030503;28;20218;-87
2021/07/22 01:40:16;;;;;;;1.13;0.50;;;18.00;99.90;;;;;;5041803;28;20555;-87
2021/07/22 01:42:41;;;;;;;0.40;0.40;;;17.90;99.90;;;;;;5035175;28;20214;-87
2021/07/22 01:45:09;;;;;;;0.30;0.30;;;17.90;99.90;;;;;;5033728;28;20704;-87
2021/07/22 01:47:39;;;;;;;0.27;0.27;;;17.80;99.90;;;;;;5034747;28;20207;-87
2021/07/22 01:50:05;;;;;;;1.10;0.90;;;17.80;99.90;;;;;;5048126;28;20225;-86
2021/07/22 01:52:30;;;;;;;0.30;0.23;;;17.80;99.90;;;;;;5027554;28;20639;-87
2021/07/22 01:54:56;;;;;;;0.10;0.10;;;17.80;99.90;;;;;;5016907;28;20198;-86
2021/07/22 01:57:22;;;;;;;0.50;0.50;;;17.70;99.90;;;;;;5025650;28;20549;-87
2021/07/22 01:59:48;;;;;;;0.40;0.40;;;17.70;99.90;;;;;;5018225;28;20290;-87
2021/07/22 02:02:14;;;;;;;0.90;0.40;;;17.60;99.90;;;;;;5016857;28;20447;-86
2021/07/22 02:04:42;;;;;;;2.20;0.30;;;17.40;99.90;;;;;;5042801;28;20181;-87
2021/07/22 02:07:09;;;;;;;0.20;0.20;;;17.30;99.90;;;;;;4999873;28;20195;-87
2021/07/22 02:09:35;;;;;;;0.40;0.40;;;17.30;99.90;;;;;;5027171;28;20666;-87
2021/07/22 02:12:01;;;;;;;0.40;0.40;;;17.40;99.90;;;;;;5035366;28;20232;-87
2021/07/22 02:14:26;;;;;;;0.90;0.57;;;17.40;99.90;;;;;;5049208;28;20224;-86
2021/07/22 02:16:53;;;;;;;0.93;0.47;;;17.30;99.90;;;;;;5031893;28;20196;-87
2021/07/22 02:19:18;;;;;;;0.60;0.60;;;17.30;99.90;;;;;;5022946;28;20289;-87
2021/07/22 02:21:45;;;;;;;0.60;0.40;;;17.40;99.90;;;;;;5035173;28;20194;-87
2021/07/22 02:24:12;;;;;;;0.40;0.40;;;17.40;99.90;;;;;;5019099;28;20191;-87
2021/07/22 02:26:38;;;;;;;0.50;0.50;;;17.40;99.90;;;;;;5025113;28;20204;-87
2021/07/22 02:29:30;;;;;;;0.60;0.40;;;17.30;99.90;;;;;;5012512;28;20294;-87
2021/07/22 02:31:56;;;;;;;1.50;0.53;;;17.20;99.90;;;;;;5031850;28;20190;-87
2021/07/22 02:34:22;;;;;;;0.30;0.30;;;17.10;99.90;;;;;;5028134;28;20669;-87
2021/07/22 02:36:47;;;;;;;0.67;0.67;;;17.10;99.90;;;;;;5045096;28;20217;-87
2021/07/22 02:39:13;;;;;;;0.43;0.43;;;17.10;99.90;;;;;;5021122;28;20212;-87
2021/07/22 02:41:38;;;;;;;0.63;0.63;;;17.10;99.90;;;;;;5024352;28;20243;-86
2021/07/22 02:44:04;;;;;;;1.10;0.33;;;17.10;99.90;;;;;;5047232;28;20197;-87
2021/07/22 02:46:30;;;;;;;1.63;0.80;;;16.90;99.90;;;;;;5035711;28;20186;-87
2021/07/22 02:48:56;;;;;;;1.07;0.63;;;16.70;99.90;;;;;;5029250;28;20213;-88
2021/07/22 02:51:22;;;;;;;1.33;1.13;;;16.60;99.90;;;;;;5016072;28;20706;-87
2021/07/22 02:53:48;;;;;;;0.20;0.20;;;16.70;99.90;;;;;;5035943;28;20209;-89
2021/07/22 02:56:13;;;;;;;1.50;0.43;;;16.60;99.90;;;;;;5035923;28;20266;-87
2021/07/22 02:58:39;;;;;;;0.30;0.30;;;16.70;99.90;;;;;;5017514;28;20214;-87
2021/07/22 03:01:09;;;;;;;0.37;0.37;;;16.70;99.90;;;;;;5018204;28;20211;-87
2021/07/22 03:03:34;;;;;;;0.50;0.50;;;16.80;99.90;;;;;;5028499;28;20185;-87
2021/07/22 03:06:00;;;;;;;0.83;0.57;;;16.80;99.90;;;;;;5020157;28;20613;-87
2021/07/22 03:08:25;;;;;;;0.40;0.40;;;16.70;99.90;;;;;;5034050;28;20689;-87
2021/07/22 03:10:51;;;;;;;0.63;0.50;;;16.70;99.90;;;;;;5021934;28;20186;-87
2021/07/22 03:13:16;;;;;;;0.53;0.40;;;16.80;99.90;;;;;;5028827;28;20186;-87
2021/07/22 03:15:42;;;;;;;0.30;0.30;;;16.80;99.90;;;;;;5033098;28;20171;-87
2021/07/22 03:18:08;;;;;;;0.30;0.30;;;16.80;99.90;;;;;;5046136;28;20182;-87
2021/07/22 03:20:33;;;;;;;0.30;0.30;;;16.80;99.90;;;;;;5014256;28;20183;-87
2021/07/22 03:23:02;;;;;;;0.57;0.57;;;16.70;99.90;;;;;;5037535;28;20209;-87
2021/07/22 03:25:27;;;;;;;0.73;0.73;;;16.70;99.90;;;;;;5016704;28;20214;-86
2021/07/22 03:27:57;;;;;;;0.40;0.40;;;16.70;99.90;;;;;;5027204;28;20229;-87
2021/07/22 03:30:22;;;;;;;0.33;0.33;;;16.60;99.90;;;;;;5028515;28;20228;-87
2021/07/22 03:32:48;;;;;;;1.10;0.47;;;16.60;99.90;;;;;;5015379;28;20209;-87
2021/07/22 03:35:13;;;;;;;0.67;0.67;;;16.70;99.90;;;;;;5039898;28;20217;-87
2021/07/22 03:37:39;;;;;;;1.57;0.47;;;16.50;99.90;;;;;;5046650;28;20181;-86
2021/07/22 03:40:05;;;;;;;0.20;0.20;;;16.70;99.90;;;;;;5024370;28;20198;-86
2021/07/22 03:42:31;;;;;;;0.57;0.57;;;16.70;99.90;;;;;;5023264;28;20697;-87
2021/07/22 03:44:56;;;;;;;0.77;0.60;;;16.70;99.90;;;;;;5037551;28;20182;-86
2021/07/22 03:47:22;;;;;;;1.73;0.57;;;16.70;99.90;;;;;;5015541;28;20278;-86
2021/07/22 03:49:48;;;;;;;1.13;0.40;;;16.70;99.90;;;;;;5005431;28;20222;-86
2021/07/22 03:52:21;;;;;;;0.37;0.37;;;16.70;99.90;;;;;;5016536;28;20178;-86
2021/07/22 03:54:47;;;;;;;0.40;0.40;;;16.70;99.90;;;;;;5002886;28;20179;-86
2021/07/22 03:57:12;;;;;;;0.20;0.20;;;16.70;99.90;;;;;;5004928;28;20577;-86
2021/07/22 03:59:38;;;;;;;0.97;0.63;;;16.80;99.90;;;;;;5023005;28;20214;-87
2021/07/22 04:02:04;;;;;;;0.40;0.40;;;17.10;99.90;;;;;;5032258;28;20195;-86
2021/07/22 04:04:29;;;;;;;0.93;0.60;;;17.30;99.90;;;;;;5021275;28;20183;-86
2021/07/22 04:06:55;;;;;;;1.30;0.70;;;17.60;99.90;;;;;;5042546;28;20272;-86
2021/07/22 04:09:20;;;;;;;0.70;0.50;;;18.00;99.90;;;;;;5028066;28;20735;-87
2021/07/22 04:11:46;;;;;;;0.70;0.60;;;18.30;99.90;;;;;;5021402;28;20284;-86
2021/07/22 04:14:11;;;;;;;0.50;0.50;;;18.50;99.90;;;;;;5021437;28;20182;-86
2021/07/22 04:16:37;;;;;;;1.30;0.40;;;18.80;99.90;;;;;;5038123;28;20184;-86
2021/07/22 04:19:03;;;;;;;0.50;0.50;;;19.00;99.90;;;;;;5039462;28;20198;-87
2021/07/22 04:21:29;;;;;;;0.23;0.23;;;19.20;99.90;;;;;;5032308;28;20181;-86
2021/07/22 04:23:55;;;;;;;0.50;0.30;;;19.10;99.90;;;;;;5028853;28;20187;-86
2021/07/22 04:26:21;;;;;;;0.47;0.47;;;19.10;99.90;;;;;;5027448;28;20635;-87
2021/07/22 04:29:01;;;;;;;0.60;0.40;;;19.10;99.90;;;;;;5044596;28;20233;-86
2021/07/22 04:31:26;;;;;;;0.47;0.30;;;19.10;99.90;;;;;;5027616;28;20205;-85
2021/07/22 04:33:52;;;;;;;0.43;0.43;;;19.00;99.90;;;;;;5037787;28;20194;-86
2021/07/22 04:36:17;;;;;;;0.50;0.50;;;18.90;99.90;;;;;;5027011;28;20193;-87
2021/07/22 04:38:43;;;;;;;0.27;0.27;;;18.90;99.90;;;;;;5032354;28;20257;-87
2021/07/22 04:41:09;;;;;;;0.40;0.40;;;18.90;99.90;;;;;;5005099;28;20221;-86
2021/07/22 04:43:35;;;;;;;0.80;0.23;;;18.90;99.90;;;;;;5039643;28;20221;-86
2021/07/22 04:46:05;;;;;;;0.20;0.20;;;18.90;99.90;;;;;;5018493;28;20236;-86
2021/07/22 04:48:31;;;;;;;0.40;0.40;;;18.90;99.90;;;;;;5006681;28;20268;-86
2021/07/22 04:51:07;;;;;;;0.20;0.20;;;18.70;99.90;;;;;;5026256;28;20557;-86
2021/07/22 04:53:36;;;;;;;0.20;0.20;;;18.70;99.90;;;;;;5014534;28;20270;-86
2021/07/22 04:56:02;;;;;;;0.50;0.50;;;18.80;99.90;;;;;;5042058;28;20185;-86
2021/07/22 04:58:28;;;;;;;0.63;0.37;;;18.80;99.90;;;;;;5020479;28;20211;-86
2021/07/22 05:00:54;;;;;;;0.70;0.53;;;18.80;99.90;;;;;;5041614;28;20624;-86
2021/07/22 05:03:19;;;;;;;0.77;0.70;;;18.80;99.90;;;;;;5014275;28;20186;-86
2021/07/22 05:05:45;;;;;;;0.50;0.50;;;18.90;99.90;;;;;;5032062;28;20182;-86
2021/07/22 05:08:10;;;;;;;0.60;0.50;;;18.90;99.90;;;;;;5020419;28;20221;-87
2021/07/22 05:10:36;;;;;;;0.53;0.53;;;18.90;99.90;;;;;;5028024;28;20209;-86
2021/07/22 05:13:06;;;;;;;2.03;0.50;;;19.00;99.90;;;;;;5031271;28;20273;-86
2021/07/22 05:15:32;;;;;;;0.70;0.70;;;19.10;99.90;;;;;;5035640;28;20185;-86
2021/07/22 05:17:58;;;;;;;6.17;0.80;;;19.30;99.90;;;;;;5017787;28;20872;-86
2021/07/22 05:20:23;;;;;;;0.37;0.37;;;19.40;99.90;;;;;;5028334;28;20649;-84
2021/07/22 05:23:00;;;;;;;0.50;0.50;;;19.40;99.90;;;;;;5038121;28;20236;-85
2021/07/22 05:25:26;;;;;;;0.60;0.53;;;19.40;99.90;;;;;;5025657;28;20201;-85
2021/07/22 05:27:51;;;;;;;0.73;0.70;;;19.30;99.90;;;;;;5052760;28;20211;-83
2021/07/22 05:30:17;;;;;;;0.50;0.50;;;19.40;99.90;;;;;;5033172;28;20250;-86
2021/07/22 05:32:42;;;;;;;0.47;0.20;;;19.50;99.90;;;;;;5028843;28;20200;-87
2021/07/22 05:35:08;;;;;;;0.87;0.87;;;19.50;99.90;;;;;;5032518;28;20179;-84
2021/07/22 05:37:34;;;;;;;0.30;0.30;;;19.60;99.90;;;;;;5017407;28;20686;-85
2021/07/22 05:40:00;;;;;;;0.40;0.40;;;19.70;99.90;;;;;;5026194;28;20221;-87
2021/07/22 05:42:25;;;;;;;0.60;0.40;;;19.80;99.90;;;;;;5042140;28;20186;-86
2021/07/22 05:44:51;;;;;;;0.50;0.50;;;19.90;99.90;;;;;;5030299;28;20177;-86
2021/07/22 05:47:16;;;;;;;0.40;0.40;;;20.00;99.90;;;;;;5041217;28;20205;-86
2021/07/22 05:49:43;;;;;;;0.77;0.73;;;20.20;99.90;;;;;;5020216;28;20227;-86
2021/07/22 05:52:08;;;;;;;0.43;0.43;;;20.20;99.90;;;;;;5023646;28;20193;-86
2021/07/22 05:54:34;;;;;;;1.23;0.73;;;20.20;99.90;;;;;;5027320;28;20182;-85
2021/07/22 05:57:00;;;;;;;0.57;0.57;;;20.40;99.90;;;;;;5020019;28;20187;-84
2021/07/22 05:59:26;;;;;;;0.60;0.60;;;20.20;99.90;;;;;;5008174;28;20211;-85
2021/07/22 06:01:51;;;;;;;0.67;0.67;;;20.30;99.90;;;;;;5023548;28;20182;-86
2021/07/22 06:04:17;;;;;;;0.40;0.40;;;20.40;99.90;;;;;;5028666;28;20571;-85
2021/07/22 06:06:43;;;;;;;1.37;0.90;;;20.30;99.90;;;;;;5009861;28;20186;-90
2021/07/22 06:09:09;;;;;;;0.43;0.33;;;20.40;99.90;;;;;;5030201;28;20674;-86
2021/07/22 06:11:35;;;;;;;0.50;0.50;;;20.80;99.90;;;;;;5010694;28;20190;-86
2021/07/22 06:14:00;;;;;;;1.07;0.90;;;20.90;99.90;;;;;;5012024;28;20538;-86
2021/07/22 06:16:27;;;;;;;1.80;0.73;;;21.10;99.90;;;;;;5030580;28;20290;-86
2021/07/22 06:18:53;;;;;;;0.47;0.47;;;21.30;99.90;;;;;;5016224;28;20230;-86
2021/07/22 06:21:18;;;;;;;0.83;0.67;;;21.30;99.90;;;;;;5022049;28;20232;-86
2021/07/22 06:23:44;;;;;;;0.60;0.60;;;21.50;99.90;;;;;;5025460;28;20225;-86
2021/07/22 06:26:10;;;;;;;0.77;0.77;;;21.70;99.90;;;;;;5029721;28;20200;-87
2021/07/22 06:28:36;;;;;;;0.53;0.53;;;21.80;99.90;;;;;;5016206;28;20206;-86
2021/07/22 06:31:01;;;;;;;0.73;0.33;;;22.00;99.90;;;;;;5038230;28;20545;-86
2021/07/22 06:33:27;;;;;;;0.70;0.70;;;22.20;99.90;;;;;;5025564;28;20670;-86
2021/07/22 06:35:53;;;;;;;1.13;1.00;;;22.40;99.90;;;;;;5029825;28;20639;-86
2021/07/22 06:38:19;;;;;;;1.03;1.03;;;22.40;99.90;;;;;;5026628;28;20638;-87
2021/07/22 06:40:44;;;;;;;1.00;0.90;;;22.40;99.90;;;;;;5029033;28;20210;-86
2021/07/22 06:43:11;;;;;;;1.17;0.70;;;22.40;99.90;;;;;;5034083;28;20197;-87
2021/07/22 06:45:40;;;;;;;0.97;0.77;;;22.30;99.90;;;;;;5047132;28;20194;-86
2021/07/22 06:48:06;;;;;;;0.70;0.70;;;22.10;99.90;;;;;;5029849;28;20210;-87
2021/07/22 06:50:32;;;;;;;1.17;0.80;;;22.30;99.90;;;;;;5036437;28;20186;-86
2021/07/22 06:52:58;;;;;;;0.93;0.70;;;22.50;99.90;;;;;;5015847;28;20558;-87
2021/07/22 06:55:24;;;;;;;3.10;0.77;;;22.70;99.90;;;;;;5032387;28;20189;-86
2021/07/22 06:57:49;;;;;;;0.60;0.60;;;22.80;99.90;;;;;;5015989;28;20183;-87
2021/07/22 07:00:15;;;;;;;0.97;0.37;;;22.50;99.90;;;;;;5033063;28;20214;-86
2021/07/22 07:02:42;;;;;;;1.13;0.63;;;22.60;99.90;;;;;;5025512;28;20244;-87
2021/07/22 07:05:08;;;;;;;1.63;0.80;;;22.70;99.90;;;;;;5028919;28;20230;-86
2021/07/22 07:07:33;;;;;;;2.37;1.07;;;23.00;99.90;;;;;;5043735;28;20212;-87
2021/07/22 07:09:59;;;;;;;1.70;1.37;;;23.00;99.90;;;;;;5022099;28;20210;-86
2021/07/22 07:12:25;;;;;;;0.80;0.60;;;22.90;99.90;;;;;;5025504;28;20208;-86
2021/07/22 07:14:50;;;;;;;0.77;0.40;;;23.20;99.90;;;;;;5039889;28;20592;-86
2021/07/22 07:17:16;;;;;;;0.80;0.80;;;23.40;99.90;;;;;;5027187;28;20189;-86
2021/07/22 07:19:41;;;;;;;1.77;0.87;;;22.90;99.90;;;;;;5039408;28;20254;-87
2021/07/22 07:22:07;;;;;;;0.50;0.50;;;22.70;99.90;;;;;;5024123;28;20225;-87
2021/07/22 07:24:35;;;;;;;0.77;0.73;;;22.90;99.90;;;;;;5031367;28;20186;-86
2021/07/22 07:27:00;;;;;;;0.80;0.57;;;23.30;99.90;;;;;;5023742;28;20305;-86
2021/07/22 07:29:26;;;;;;;1.17;0.90;;;23.20;99.90;;;;;;5028366;28;20252;-87
2021/07/22 07:31:56;;;;;;;1.23;1.07;;;23.10;99.90;;;;;;5026576;28;20669;-86
2021/07/22 07:34:22;;;;;;;0.77;0.53;;;22.80;99.90;;;;;;5017352;28;20177;-86
2021/07/22 07:36:47;;;;;;;0.27;0.27;;;23.10;99.90;;;;;;5022924;28;20182;-86
2021/07/22 07:39:15;;;;;;;0.63;0.50;;;23.50;99.90;;;;;;5028433;28;20292;-86
2021/07/22 07:41:42;;;;;;;0.50;0.50;;;23.50;99.90;;;;;;5027828;28;20209;-87
2021/07/22 07:44:07;;;;;;;1.57;0.63;;;23.90;99.90;;;;;;5021861;28;20204;-86
2021/07/22 07:46:33;;;;;;;1.07;1.00;;;23.90;99.90;;;;;;5022742;28;20646;-86
2021/07/22 07:48:58;;;;;;;0.90;0.90;;;23.70;99.90;;;;;;5046108;28;20746;-87
2021/07/22 07:51:24;;;;;;;1.20;0.70;;;24.00;99.90;;;;;;5042999;28;20182;-87
2021/07/22 07:53:50;;;;;;;0.80;0.80;;;24.30;99.90;;;;;;5031540;28;20188;-87
2021/07/22 07:56:16;;;;;;;0.97;0.90;;;23.90;99.90;;;;;;5023628;28;20185;-87
2021/07/22 07:58:42;;;;;;;4.07;0.97;;;23.90;99.90;;;;;;5032431;28;20206;-86
2021/07/22 08:01:07;;;;;;;0.87;0.67;;;23.80;99.90;;;;;;5027344;28;20213;-86
2021/07/22 08:03:33;;;;;;;0.67;0.67;;;23.80;99.90;;;;;;5018537;28;20196;-87
2021/07/22 08:05:58;;;;;;;1.20;1.13;;;24.00;99.90;;;;;;5022941;28;20600;-87
2021/07/22 08:08:24;;;;;;;0.97;0.57;;;24.10;99.90;;;;;;5031181;28;20221;-86
2021/07/22 08:10:50;;;;;;;0.90;0.67;;;24.10;99.90;;;;;;5032285;28;20170;-87
2021/07/22 08:13:16;;;;;;;0.47;0.47;;;23.90;99.90;;;;;;5032178;28;20184;-87
2021/07/22 08:15:43;;;;;;;0.40;0.40;;;23.70;99.90;;;;;;5033463;28;20182;-86
2021/07/22 08:18:09;;;;;;;2.33;1.00;;;23.70;99.90;;;;;;5035101;28;20189;-87
2021/07/22 08:20:35;;;;;;;0.50;0.50;;;24.10;99.90;;;;;;5046720;28;20194;-88
2021/07/22 08:23:01;;;;;;;0.50;0.50;;;24.40;99.90;;;;;;5024209;28;20186;-87
2021/07/22 08:25:26;;;;;;;0.50;0.50;;;24.50;99.90;;;;;;5028518;28;20186;-86
2021/07/22 08:27:52;;;;;;;0.80;0.70;;;24.80;99.90;;;;;;5019777;28;20210;-88
2021/07/22 08:30:17;;;;;;;1.17;0.93;;;25.20;99.90;;;;;;5035334;28;20236;-87
2021/07/22 08:32:43;;;;;;;1.20;0.70;;;24.70;99.90;;;;;;5032589;28;20182;-86
2021/07/22 08:35:09;;;;;;;0.53;0.43;;;25.10;99.90;;;;;;5040958;28;20178;-86
2021/07/22 08:37:35;;;;;;;1.43;1.33;;;25.40;99.90;;;;;;5050454;28;20559;-87
2021/07/22 08:40:03;;;;;;;0.60;0.60;;;25.30;99.90;;;;;;5041401;28;20697;-86
2021/07/22 08:42:35;;;;;;;1.63;1.13;;;25.00;99.90;;;;;;5046130;28;20193;-87
2021/07/22 08:45:01;;;;;;;1.33;0.97;;;24.60;99.90;;;;;;5035402;28;20182;-86
2021/07/22 08:47:27;;;;;;;1.67;1.57;;;24.50;99.90;;;;;;5032290;28;20214;-87
2021/07/22 08:49:53;;;;;;;1.07;0.97;;;24.70;99.90;;;;;;5027812;28;20203;-87
2021/07/22 08:52:18;;;;;;;0.70;0.70;;;25.00;99.90;;;;;;5020550;28;20190;-87
2021/07/22 08:54:44;;;;;;;1.23;0.80;;;25.00;99.90;;;;;;5018841;28;20178;-87
2021/07/22 08:57:11;;;;;;;1.07;0.80;;;25.60;99.90;;;;;;5041738;28;20185;-87
2021/07/22 08:59:38;;;;;;;1.33;0.87;;;25.70;99.90;;;;;;5024565;28;20214;-87
2021/07/22 09:02:05;;;;;;;0.83;0.73;;;25.20;99.90;;;;;;5031639;28;20252;-86
2021/07/22 09:04:47;;;;;;;0.90;0.90;;;25.40;99.90;;;;;;5048251;28;20185;-87
2021/07/22 09:07:13;;;;;;;0.93;0.50;;;25.80;99.90;;;;;;5031702;28;20194;-87
2021/07/22 09:09:39;;;;;;;0.70;0.70;;;26.10;99.90;;;;;;5023941;28;20235;-87
2021/07/22 09:12:05;;;;;;;1.13;1.03;;;26.40;99.90;;;;;;5030354;28;20229;-86
2021/07/22 09:14:31;;;;;;;0.80;0.80;;;26.70;99.90;;;;;;5047738;28;20185;-86
2021/07/22 09:17:05;;;;;;;1.20;1.10;;;26.50;99.90;;;;;;5035676;28;20304;-87
2021/07/22 09:19:32;;;;;;;1.13;1.13;;;25.80;99.90;;;;;;5038245;28;20214;-86
2021/07/22 09:21:58;;;;;;;1.47;1.37;;;25.80;99.90;;;;;;5028290;28;20697;-86
2021/07/22 09:24:24;;;;;;;3.40;1.57;;;25.50;99.90;;;;;;5052154;28;20186;-86
2021/07/22 09:26:51;;;;;;;1.07;0.70;;;25.10;99.90;;;;;;5028417;28;20193;-86
2021/07/22 09:29:17;;;;;;;0.90;0.90;;;25.10;99.90;;;;;;5030808;28;20217;-86
2021/07/22 09:31:43;;;;;;;1.27;0.97;;;25.10;99.90;;;;;;5023653;28;20205;-86
2021/07/22 09:34:14;;;;;;;1.13;0.83;;;25.20;99.90;;;;;;5035399;28;20213;-86
2021/07/22 09:36:40;;;;;;;1.30;0.90;;;25.30;99.90;;;;;;5027925;28;20189;-87
2021/07/22 09:39:28;;;;;;;1.47;1.10;;;26.00;99.90;;;;;;5023717;28;20202;-87
2021/07/22 09:42:02;;;;;;;0.80;0.63;;;26.50;99.90;;;;;;5050095;28;20178;-87
2021/07/22 09:44:40;;;;;;;1.20;0.93;;;27.00;99.90;;;;;;5024084;28;20213;-87
2021/07/22 09:47:07;;;;;;;1.10;1.00;;;27.20;99.90;;;;;;5030505;28;20296;-87
2021/07/22 09:49:41;;;;;;;2.10;1.53;;;26.80;99.90;;;;;;5017227;28;20190;-87
2021/07/22 09:52:23;;;;;;;3.33;1.30;;;26.30;99.90;;;;;;5019409;28;20284;-87
2021/07/22 09:54:48;;;;;;;1.53;0.93;;;26.20;99.90;;;;;;5028930;28;20177;-87
2021/07/22 09:57:22;;;;;;;0.30;0.30;;;26.80;99.90;;;;;;5035970;28;20186;-87
2021/07/22 09:59:49;;;;;;;1.50;1.27;;;27.00;99.90;;;;;;5016997;28;20202;-86
2021/07/22 10:02:23;;;;;;;1.70;1.03;;;26.50;99.90;;;;;;5016913;28;20210;-87
2021/07/22 10:05:06;;;;;;;1.20;0.90;;;26.70;99.90;;;;;;5048009;28;20180;-87
2021/07/22 10:07:35;;;;;;;1.50;1.13;;;27.20;99.90;;;;;;5027177;28;20255;-87
2021/07/22 10:10:02;;;;;;;1.73;0.73;;;27.40;99.90;;;;;;5039489;28;20194;-87
2021/07/22 10:12:30;;;;;;;0.83;0.67;;;27.30;99.90;;;;;;5033634;28;20186;-87
2021/07/22 10:14:57;;;;;;;1.90;1.23;;;27.70;99.90;;;;;;5028805;28;20203;-86
2021/07/22 10:17:26;;;;;;;0.90;0.90;;;28.10;99.90;;;;;;5033354;28;20218;-87
2021/07/22 10:19:57;;;;;;;3.30;1.40;;;28.50;99.90;;;;;;5029803;28;20202;-87
2021/07/22 10:22:25;;;;;;;1.17;1.08;;;28.00;99.90;;;;;;5027153;28;20265;-87
2021/07/22 10:24:53;;;;;;;0.87;0.87;;;27.70;99.90;;;;;;5047345;28;20713;-87
2021/07/22 10:27:18;;;;;;;2.58;1.00;;;28.40;99.90;;;;;;5033564;28;20268;-89
2021/07/22 10:29:47;;;;;;;1.97;1.43;;;27.40;99.90;;;;;;5047155;28;20194;-86
2021/07/22 10:32:21;;;;;;;1.40;1.30;;;26.30;99.90;;;;;;5029658;28;20197;-87
2021/07/22 10:34:48;;;;;;;4.37;1.37;;;26.00;99.90;;;;;;5024903;28;20186;-87
2021/07/22 10:37:18;;;;;;;1.30;0.67;;;25.60;99.90;;;;;;5022997;28;20239;-87
2021/07/22 10:40:05;;;;;;;1.27;1.03;;;25.80;99.90;;;;;;5044890;28;20206;-87
2021/07/22 10:42:39;;;;;;;0.60;0.60;;;25.30;99.90;;;;;;5023443;28;20181;-88
2021/07/22 10:45:26;;;;;;;0.60;0.60;;;25.60;99.90;;;;;;5054150;28;20760;-86
2021/07/22 10:48:10;;;;;;;0.93;0.90;;;26.00;99.90;;;;;;5014209;28;20263;-87
2021/07/22 10:50:42;;;;;;;1.37;1.33;;;25.80;99.90;;;;;;5040464;28;20545;-86
2021/07/22 10:53:09;;;;;;;1.13;1.03;;;26.40;99.90;;;;;;5032502;28;20178;-87
2021/07/22 10:55:41;;;;;;;1.43;1.33;;;27.20;99.90;;;;;;5022625;28;20189;-86
2021/07/22 10:58:39;;;;;;;5.40;0.93;;;26.20;99.90;;;;;;5022530;28;20182;-86
2021/07/22 11:01:06;;;;;;;0.70;0.70;;;26.90;99.90;;;;;;4992051;28;20301;-87
2021/07/22 11:03:40;;;;;;;1.10;1.00;;;27.50;99.90;;;;;;5020623;28;20205;-87
2021/07/22 11:06:07;;;;;;;1.80;1.60;;;27.10;99.90;;;;;;5041037;28;20674;-86
2021/07/22 11:08:36;;;;;;;1.33;1.23;;;26.80;99.90;;;;;;5038628;28;20209;-87
2021/07/22 11:11:07;;;;;;;0.70;0.70;;;26.70;99.90;;;;;;5022594;28;20190;-86
2021/07/22 11:13:33;;;;;;;0.63;0.60;;;27.70;99.90;;;;;;5022966;28;20182;-87
2021/07/22 11:16:28;;;;;;;0.70;0.70;;;27.60;99.90;;;;;;5039578;28;20170;-87
2021/07/22 11:19:13;;;;;;;1.33;1.00;;;27.70;99.90;;;;;;5023956;28;20206;-87
2021/07/22 11:21:47;;;;;;;2.20;0.73;;;28.30;99.90;;;;;;5030791;28;20177;-87
2021/07/22 11:24:19;;;;;;;0.83;0.83;;;27.10;99.90;;;;;;5021913;28;20201;-86
2021/07/22 11:26:50;;;;;;;1.87;1.23;;;27.90;99.90;;;;;;5025647;28;20560;-87
2021/07/22 11:29:17;;;;;;;1.30;1.20;;;27.50;99.90;;;;;;5031126;28;20596;-86
2021/07/22 11:31:54;;;;;;;1.37;1.00;;;28.10;99.90;;;;;;5021722;28;20198;-86
2021/07/22 11:34:31;;;;;;;0.75;0.73;;;27.60;99.90;;;;;;5022086;28;20196;-87
2021/07/22 11:37:01;;;;;;;1.77;0.90;;;27.00;99.90;;;;;;5030033;28;20196;-87
2021/07/22 11:39:40;;;;;;;1.03;0.83;;;26.80;99.90;;;;;;5009629;28;20658;-87
2021/07/22 11:42:08;;;;;;;0.80;0.80;;;27.10;99.90;;;;;;5022052;28;20225;-87
2021/07/22 11:44:34;;;;;;;1.33;1.20;;;26.90;99.90;;;;;;5026236;28;20278;-87
2021/07/22 11:47:00;;;;;;;1.17;0.70;;;26.70;99.90;;;;;;5019802;28;20304;-86
2021/07/22 11:49:33;;;;;;;1.50;1.40;;;26.90;99.90;;;;;;5026012;28;20234;-87
2021/07/22 11:51:59;;;;;;;2.43;1.37;;;27.30;99.90;;;;;;5021869;28;20231;-87
2021/07/22 11:54:25;;;;;;;1.03;0.93;;;27.10;99.90;;;;;;5024938;28;20190;-87
2021/07/22 11:56:56;;;;;;;2.60;0.97;;;27.30;99.90;;;;;;5032724;28;20665;-86
2021/07/22 11:59:27;;;;;;;1.20;0.70;;;27.90;99.90;;;;;;5025429;28;20557;-87
2021/07/22 12:01:53;;;;;;;1.13;0.90;;;28.00;99.90;;;;;;5021751;28;20185;-87
2021/07/22 12:04:30;;;;;;;0.67;0.67;;;28.30;99.90;;;;;;5023747;28;20193;-87
2021/07/22 12:06:57;;;;;;;0.73;0.60;;;27.60;99.90;;;;;;5032477;28;20170;-87
2021/07/22 12:09:23;;;;;;;0.77;0.77;;;27.10;99.90;;;;;;5031112;28;20688;-87
2021/07/22 12:11:49;;;;;;;0.50;0.50;;;27.10;99.90;;;;;;5028154;28;20305;-87
2021/07/22 12:14:36;;;;;;;3.07;0.77;;;27.30;99.90;;;;;;5016884;28;20209;-87
2021/07/22 12:17:07;;;;;;;1.57;1.47;;;26.70;99.90;;;;;;5032619;28;20646;-87
2021/07/22 12:19:34;;;;;;;1.00;0.87;;;25.90;99.90;;;;;;5034364;28;20239;-86
2021/07/22 12:22:26;;;;;;;1.40;0.90;;;25.60;99.90;;;;;;5024696;28;20655;-86
2021/07/22 12:24:54;;;;;;;1.57;1.43;;;25.80;99.90;;;;;;5026208;28;20186;-87
2021/07/22 12:27:31;;;;;;;0.50;0.50;;;25.70;99.90;;;;;;5027875;28;20572;-87
2021/07/22 12:29:57;;;;;;;3.37;0.67;;;25.60;99.90;;;;;;5031002;28;20221;-86
2021/07/22 12:32:23;;;;;;;1.40;0.90;;;25.90;99.90;;;;;;5045883;28;20190;-87
2021/07/22 12:34:49;;;;;;;1.33;1.23;;;26.10;99.90;;;;;;5023559;28;20612;-87
2021/07/22 12:37:16;;;;;;;1.23;1.00;;;26.30;99.90;;;;;;5021099;28;20194;-87
2021/07/22 12:39:42;;;;;;;0.77;0.77;;;26.90;99.90;;;;;;5024859;28;20686;-88
2021/07/22 12:42:10;;;;;;;0.93;0.93;;;27.30;99.90;;;;;;5034025;28;20204;-87
2021/07/22 12:44:43;;;;;;;1.60;1.27;;;27.80;99.90;;;;;;5024418;28;20194;-87
2021/07/22 12:47:29;;;;;;;1.13;1.13;;;27.90;99.90;;;;;;5027825;28;20210;-87
2021/07/22 12:49:55;;;;;;;0.87;0.83;;;27.60;99.90;;;;;;5031105;28;20348;-86